Pickering, Missouri
Current Conditions -  °F | °C
As of 6:15 PM on Thursday 27 Nov 2014 (Local Time) from KICL Reporting Station
Clear Clear  
Wind Chill: 15°   Ceiling: Unl
Heat Index: 23°   Visibility: 10mi
Dew Point: 14°   Wind: 7mph
Humidity: 68%   Direction: 110°ESE
Pressure: 30.37"   Gusts: NA
Location:  40.45°N, 94.84°W
Report Text: KICL 280015Z AUTO 11006KT 10SM CLR M05/M10 A3037 RMK AO2
Loading
Personal Weather Stations






























Interactive Weather Map New forecast layout! Learn more

10-Day Weather Forecast

Advertisements
Track Severe Weather on mobile